sensor_id;sensor_type;location;lat;lon;timestamp;P1;durP1;ratioP1;P2;durP2;ratioP2
3369;SDS011;42042;51.948;7.628;2023-08-07T00:02:13;5.10;;;3.43;;
3369;SDS011;42042;51.948;7.628;2023-08-07T00:04:40;6.87;;;4.47;;
3369;SDS011;42042;51.948;7.628;2023-08-07T00:07:07;7.00;;;4.00;;
3369;SDS011;42042;51.948;7.628;2023-08-07T00:09:35;8.77;;;4.30;;
3369;SDS011;42042;51.948;7.628;2023-08-07T00:12:02;9.20;;;4.63;;
3369;SDS011;42042;51.948;7.628;2023-08-07T00:14:31;5.60;;;4.07;;
3369;SDS011;42042;51.948;7.628;2023-08-07T00:16:58;9.53;;;4.30;;
3369;SDS011;42042;51.948;7.628;2023-08-07T00:19:25;5.07;;;3.80;;
3369;SDS011;42042;51.948;7.628;2023-08-07T00:21:52;6.07;;;3.77;;
3369;SDS011;42042;51.948;7.628;2023-08-07T00:24:19;3.97;;;3.63;;
3369;SDS011;42042;51.948;7.628;2023-08-07T00:26:47;4.03;;;3.20;;
3369;SDS011;42042;51.948;7.628;2023-08-07T00:29:14;4.40;;;3.80;;
3369;SDS011;42042;51.948;7.628;2023-08-07T00:31:42;4.10;;;3.70;;
3369;SDS011;42042;51.948;7.628;2023-08-07T00:34:09;13.40;;;4.23;;
3369;SDS011;42042;51.948;7.628;2023-08-07T00:36:37;6.30;;;4.17;;
3369;SDS011;42042;51.948;7.628;2023-08-07T00:39:04;5.80;;;4.47;;
3369;SDS011;42042;51.948;7.628;2023-08-07T00:41:32;5.23;;;3.60;;
3369;SDS011;42042;51.948;7.628;2023-08-07T00:44:00;4.20;;;3.70;;
3369;SDS011;42042;51.948;7.628;2023-08-07T00:46:27;5.40;;;4.60;;
3369;SDS011;42042;51.948;7.628;2023-08-07T00:48:56;4.37;;;3.30;;
3369;SDS011;42042;51.948;7.628;2023-08-07T00:51:23;3.97;;;3.67;;
3369;SDS011;42042;51.948;7.628;2023-08-07T00:53:50;4.00;;;3.60;;
3369;SDS011;42042;51.948;7.628;2023-08-07T00:56:18;8.20;;;3.80;;
3369;SDS011;42042;51.948;7.628;2023-08-07T00:58:45;4.43;;;3.80;;
3369;SDS011;42042;51.948;7.628;2023-08-07T01:01:13;6.43;;;4.93;;
3369;SDS011;42042;51.948;7.628;2023-08-07T01:03:40;6.40;;;3.97;;
3369;SDS011;42042;51.948;7.628;2023-08-07T01:06:09;5.33;;;4.10;;
3369;SDS011;42042;51.948;7.628;2023-08-07T01:08:36;4.50;;;3.67;;
3369;SDS011;42042;51.948;7.628;2023-08-07T01:11:10;4.40;;;4.00;;
3369;SDS011;42042;51.948;7.628;2023-08-07T01:13:49;4.73;;;3.33;;
3369;SDS011;42042;51.948;7.628;2023-08-07T01:16:21;5.63;;;4.30;;
3369;SDS011;42042;51.948;7.628;2023-08-07T01:18:49;5.07;;;3.77;;
3369;SDS011;42042;51.948;7.628;2023-08-07T01:21:20;4.93;;;4.47;;
3369;SDS011;42042;51.948;7.628;2023-08-07T01:23:49;4.97;;;4.30;;
3369;SDS011;42042;51.948;7.628;2023-08-07T01:26:18;6.20;;;3.93;;
3369;SDS011;42042;51.948;7.628;2023-08-07T01:28:46;5.70;;;4.17;;
3369;SDS011;42042;51.948;7.628;2023-08-07T01:31:15;7.80;;;4.70;;
3369;SDS011;42042;51.948;7.628;2023-08-07T01:33:47;6.50;;;4.53;;
3369;SDS011;42042;51.948;7.628;2023-08-07T01:36:15;7.27;;;4.93;;
3369;SDS011;42042;51.948;7.628;2023-08-07T01:38:42;7.13;;;5.33;;
3369;SDS011;42042;51.948;7.628;2023-08-07T01:41:11;8.27;;;5.40;;
3369;SDS011;42042;51.948;7.628;2023-08-07T01:43:39;10.60;;;6.27;;
3369;SDS011;42042;51.948;7.628;2023-08-07T01:46:06;11.37;;;6.57;;
3369;SDS011;42042;51.948;7.628;2023-08-07T01:48:34;9.10;;;6.10;;
3369;SDS011;42042;51.948;7.628;2023-08-07T01:51:01;8.80;;;6.20;;
3369;SDS011;42042;51.948;7.628;2023-08-07T01:53:28;10.00;;;5.70;;
3369;SDS011;42042;51.948;7.628;2023-08-07T01:55:55;11.17;;;7.30;;
3369;SDS011;42042;51.948;7.628;2023-08-07T01:58:24;10.27;;;6.20;;
3369;SDS011;42042;51.948;7.628;2023-08-07T02:00:51;8.93;;;6.40;;
3369;SDS011;42042;51.948;7.628;2023-08-07T02:03:18;7.60;;;6.23;;
3369;SDS011;42042;51.948;7.628;2023-08-07T02:05:46;8.60;;;6.37;;
3369;SDS011;42042;51.948;7.628;2023-08-07T02:08:13;11.63;;;6.60;;
3369;SDS011;42042;51.948;7.628;2023-08-07T02:10:41;9.77;;;5.53;;
3369;SDS011;42042;51.948;7.628;2023-08-07T02:13:08;7.37;;;5.80;;
3369;SDS011;42042;51.948;7.628;2023-08-07T02:15:36;4.60;;;3.60;;
3369;SDS011;42042;51.948;7.628;2023-08-07T02:18:03;6.30;;;4.47;;
3369;SDS011;42042;51.948;7.628;2023-08-07T02:20:31;10.73;;;4.40;;
3369;SDS011;42042;51.948;7.628;2023-08-07T02:22:58;5.00;;;4.20;;
3369;SDS011;42042;51.948;7.628;2023-08-07T02:25:25;5.13;;;4.70;;
3369;SDS011;42042;51.948;7.628;2023-08-07T02:27:52;4.87;;;4.40;;
3369;SDS011;42042;51.948;7.628;2023-08-07T02:30:19;4.00;;;3.70;;
3369;SDS011;42042;51.948;7.628;2023-08-07T02:32:48;5.80;;;4.60;;
3369;SDS011;42042;51.948;7.628;2023-08-07T02:35:15;4.30;;;3.90;;
3369;SDS011;42042;51.948;7.628;2023-08-07T02:37:42;5.70;;;4.00;;
3369;SDS011;42042;51.948;7.628;2023-08-07T02:40:10;3.27;;;2.90;;
3369;SDS011;42042;51.948;7.628;2023-08-07T02:42:40;7.13;;;3.67;;
3369;SDS011;42042;51.948;7.628;2023-08-07T02:45:08;4.40;;;2.47;;
3369;SDS011;42042;51.948;7.628;2023-08-07T02:47:35;2.37;;;2.17;;
3369;SDS011;42042;51.948;7.628;2023-08-07T02:50:04;2.27;;;2.07;;
3369;SDS011;42042;51.948;7.628;2023-08-07T02:52:31;2.60;;;2.40;;
3369;SDS011;42042;51.948;7.628;2023-08-07T02:54:58;2.17;;;2.07;;
3369;SDS011;42042;51.948;7.628;2023-08-07T02:57:25;3.00;;;2.00;;
3369;SDS011;42042;51.948;7.628;2023-08-07T02:59:53;2.07;;;1.87;;
3369;SDS011;42042;51.948;7.628;2023-08-07T03:02:20;3.00;;;2.13;;
3369;SDS011;42042;51.948;7.628;2023-08-07T03:04:47;3.90;;;3.50;;
3369;SDS011;42042;51.948;7.628;2023-08-07T03:07:15;5.17;;;2.37;;
3369;SDS011;42042;51.948;7.628;2023-08-07T03:09:44;2.20;;;2.00;;
3369;SDS011;42042;51.948;7.628;2023-08-07T03:12:12;2.87;;;2.67;;
3369;SDS011;42042;51.948;7.628;2023-08-07T03:14:40;2.07;;;1.90;;
3369;SDS011;42042;51.948;7.628;2023-08-07T03:17:07;3.63;;;2.30;;
3369;SDS011;42042;51.948;7.628;2023-08-07T03:19:34;2.70;;;2.50;;
3369;SDS011;42042;51.948;7.628;2023-08-07T03:22:02;3.10;;;2.80;;
3369;SDS011;42042;51.948;7.628;2023-08-07T03:24:30;2.63;;;2.43;;
3369;SDS011;42042;51.948;7.628;2023-08-07T03:26:57;3.80;;;2.90;;
3369;SDS011;42042;51.948;7.628;2023-08-07T03:29:25;4.33;;;2.67;;
3369;SDS011;42042;51.948;7.628;2023-08-07T03:31:52;5.20;;;3.10;;
3369;SDS011;42042;51.948;7.628;2023-08-07T03:34:19;3.17;;;2.87;;
3369;SDS011;42042;51.948;7.628;2023-08-07T03:36:46;3.07;;;2.67;;
3369;SDS011;42042;51.948;7.628;2023-08-07T03:39:13;8.17;;;2.50;;
3369;SDS011;42042;51.948;7.628;2023-08-07T03:41:42;3.33;;;2.97;;
3369;SDS011;42042;51.948;7.628;2023-08-07T03:44:09;4.97;;;2.37;;
3369;SDS011;42042;51.948;7.628;2023-08-07T03:46:36;2.70;;;2.50;;
3369;SDS011;42042;51.948;7.628;2023-08-07T03:49:03;4.57;;;2.63;;
3369;SDS011;42042;51.948;7.628;2023-08-07T03:51:31;3.20;;;2.30;;
3369;SDS011;42042;51.948;7.628;2023-08-07T03:53:58;3.03;;;2.50;;
3369;SDS011;42042;51.948;7.628;2023-08-07T03:56:25;2.13;;;1.97;;
3369;SDS011;42042;51.948;7.628;2023-08-07T03:58:54;7.63;;;3.70;;
3369;SDS011;42042;51.948;7.628;2023-08-07T04:01:21;2.30;;;1.77;;
3369;SDS011;42042;51.948;7.628;2023-08-07T04:03:48;1.97;;;1.67;;
3369;SDS011;42042;51.948;7.628;2023-08-07T04:06:15;4.73;;;1.90;;
3369;SDS011;42042;51.948;7.628;2023-08-07T04:08:44;1.87;;;1.77;;
3369;SDS011;42042;51.948;7.628;2023-08-07T04:11:11;3.27;;;2.10;;
3369;SDS011;42042;51.948;7.628;2023-08-07T04:13:39;9.40;;;2.00;;
3369;SDS011;42042;51.948;7.628;2023-08-07T04:16:07;1.90;;;1.80;;
3369;SDS011;42042;51.948;7.628;2023-08-07T04:18:35;3.10;;;1.87;;
3369;SDS011;42042;51.948;7.628;2023-08-07T04:21:02;8.17;;;1.90;;
3369;SDS011;42042;51.948;7.628;2023-08-07T04:23:30;2.40;;;1.80;;
3369;SDS011;42042;51.948;7.628;2023-08-07T04:25:57;2.77;;;2.20;;
3369;SDS011;42042;51.948;7.628;2023-08-07T04:28:24;3.37;;;2.27;;
3369;SDS011;42042;51.948;7.628;2023-08-07T04:30:51;4.17;;;2.20;;
3369;SDS011;42042;51.948;7.628;2023-08-07T04:33:20;5.90;;;2.30;;
3369;SDS011;42042;51.948;7.628;2023-08-07T04:35:47;2.40;;;2.20;;
3369;SDS011;42042;51.948;7.628;2023-08-07T04:38:15;2.70;;;2.50;;
3369;SDS011;42042;51.948;7.628;2023-08-07T04:40:45;5.00;;;2.53;;
3369;SDS011;42042;51.948;7.628;2023-08-07T04:43:12;2.83;;;2.40;;
3369;SDS011;42042;51.948;7.628;2023-08-07T04:45:40;4.37;;;2.80;;
3369;SDS011;42042;51.948;7.628;2023-08-07T04:48:07;3.03;;;2.40;;
3369;SDS011;42042;51.948;7.628;2023-08-07T04:50:36;3.07;;;1.93;;
3369;SDS011;42042;51.948;7.628;2023-08-07T04:53:03;2.53;;;2.00;;
3369;SDS011;42042;51.948;7.628;2023-08-07T04:55:31;2.27;;;1.73;;
3369;SDS011;42042;51.948;7.628;2023-08-07T04:57:58;3.00;;;2.70;;
3369;SDS011;42042;51.948;7.628;2023-08-07T05:00:27;4.80;;;2.13;;
3369;SDS011;42042;51.948;7.628;2023-08-07T05:02:54;4.40;;;1.73;;
3369;SDS011;42042;51.948;7.628;2023-08-07T05:05:21;3.40;;;2.50;;
3369;SDS011;42042;51.948;7.628;2023-08-07T05:07:50;3.00;;;2.00;;
3369;SDS011;42042;51.948;7.628;2023-08-07T05:10:17;3.20;;;2.00;;
3369;SDS011;42042;51.948;7.628;2023-08-07T05:12:44;2.30;;;1.83;;
3369;SDS011;42042;51.948;7.628;2023-08-07T05:15:11;1.83;;;1.73;;
3369;SDS011;42042;51.948;7.628;2023-08-07T05:17:39;2.20;;;2.00;;
3369;SDS011;42042;51.948;7.628;2023-08-07T05:20:06;3.13;;;1.83;;
3369;SDS011;42042;51.948;7.628;2023-08-07T05:22:34;3.43;;;1.60;;
3369;SDS011;42042;51.948;7.628;2023-08-07T05:25:04;3.00;;;1.90;;
3369;SDS011;42042;51.948;7.628;2023-08-07T05:27:31;4.30;;;1.80;;
3369;SDS011;42042;51.948;7.628;2023-08-07T05:30:00;2.73;;;2.03;;
3369;SDS011;42042;51.948;7.628;2023-08-07T05:32:27;4.17;;;2.03;;
3369;SDS011;42042;51.948;7.628;2023-08-07T05:34:54;5.13;;;2.40;;
3369;SDS011;42042;51.948;7.628;2023-08-07T05:37:21;3.57;;;2.37;;
3369;SDS011;42042;51.948;7.628;2023-08-07T05:39:48;5.67;;;2.90;;
3369;SDS011;42042;51.948;7.628;2023-08-07T05:42:17;4.60;;;2.43;;
3369;SDS011;42042;51.948;7.628;2023-08-07T05:44:44;4.23;;;2.30;;
3369;SDS011;42042;51.948;7.628;2023-08-07T05:47:12;4.17;;;2.17;;
3369;SDS011;42042;51.948;7.628;2023-08-07T05:49:39;3.23;;;2.00;;
3369;SDS011;42042;51.948;7.628;2023-08-07T05:52:06;4.97;;;3.20;;
3369;SDS011;42042;51.948;7.628;2023-08-07T05:54:34;5.57;;;2.97;;
3369;SDS011;42042;51.948;7.628;2023-08-07T05:57:01;9.33;;;2.53;;
3369;SDS011;42042;51.948;7.628;2023-08-07T05:59:30;7.90;;;3.00;;
3369;SDS011;42042;51.948;7.628;2023-08-07T06:01:59;4.50;;;2.53;;
3369;SDS011;42042;51.948;7.628;2023-08-07T06:04:27;7.20;;;3.50;;
3369;SDS011;42042;51.948;7.628;2023-08-07T06:06:54;6.83;;;3.50;;
3369;SDS011;42042;51.948;7.628;2023-08-07T06:09:21;3.43;;;2.80;;
3369;SDS011;42042;51.948;7.628;2023-08-07T06:11:49;10.40;;;3.80;;
3369;SDS011;42042;51.948;7.628;2023-08-07T06:14:16;12.20;;;2.87;;
3369;SDS011;42042;51.948;7.628;2023-08-07T06:16:44;8.47;;;4.10;;
3369;SDS011;42042;51.948;7.628;2023-08-07T06:19:12;8.40;;;3.40;;
3369;SDS011;42042;51.948;7.628;2023-08-07T06:21:39;4.73;;;3.00;;
3369;SDS011;42042;51.948;7.628;2023-08-07T06:24:06;4.87;;;3.57;;
3369;SDS011;42042;51.948;7.628;2023-08-07T06:26:33;7.60;;;3.20;;
3369;SDS011;42042;51.948;7.628;2023-08-07T06:29:00;6.90;;;3.13;;
3369;SDS011;42042;51.948;7.628;2023-08-07T06:31:27;5.33;;;3.03;;
3369;SDS011;42042;51.948;7.628;2023-08-07T06:33:56;7.83;;;3.10;;
3369;SDS011;42042;51.948;7.628;2023-08-07T06:36:25;4.60;;;3.00;;
3369;SDS011;42042;51.948;7.628;2023-08-07T06:38:52;4.53;;;3.23;;
3369;SDS011;42042;51.948;7.628;2023-08-07T06:41:19;8.80;;;3.57;;
3369;SDS011;42042;51.948;7.628;2023-08-07T06:43:46;15.93;;;4.63;;
3369;SDS011;42042;51.948;7.628;2023-08-07T06:46:14;10.30;;;3.47;;
3369;SDS011;42042;51.948;7.628;2023-08-07T06:48:42;9.10;;;3.80;;
3369;SDS011;42042;51.948;7.628;2023-08-07T06:51:10;9.07;;;3.50;;
3369;SDS011;42042;51.948;7.628;2023-08-07T06:53:37;9.37;;;3.80;;
3369;SDS011;42042;51.948;7.628;2023-08-07T06:56:04;9.33;;;3.30;;
3369;SDS011;42042;51.948;7.628;2023-08-07T06:58:32;7.33;;;3.20;;
3369;SDS011;42042;51.948;7.628;2023-08-07T07:00:59;5.43;;;3.53;;
3369;SDS011;42042;51.948;7.628;2023-08-07T07:03:27;5.90;;;3.70;;
3369;SDS011;42042;51.948;7.628;2023-08-07T07:05:55;9.07;;;4.37;;
3369;SDS011;42042;51.948;7.628;2023-08-07T07:08:23;5.80;;;3.70;;
3369;SDS011;42042;51.948;7.628;2023-08-07T07:10:50;5.60;;;4.17;;
3369;SDS011;42042;51.948;7.628;2023-08-07T07:13:17;9.70;;;4.07;;
3369;SDS011;42042;51.948;7.628;2023-08-07T07:15:45;10.33;;;5.60;;
3369;SDS011;42042;51.948;7.628;2023-08-07T07:18:12;4.70;;;3.50;;
3369;SDS011;42042;51.948;7.628;2023-08-07T07:20:39;8.40;;;4.10;;
3369;SDS011;42042;51.948;7.628;2023-08-07T07:23:07;10.83;;;4.07;;
3369;SDS011;42042;51.948;7.628;2023-08-07T07:25:35;10.67;;;4.50;;
3369;SDS011;42042;51.948;7.628;2023-08-07T07:28:02;10.43;;;3.97;;
3369;SDS011;42042;51.948;7.628;2023-08-07T07:30:30;9.93;;;3.93;;
3369;SDS011;42042;51.948;7.628;2023-08-07T07:32:57;9.33;;;4.40;;
3369;SDS011;42042;51.948;7.628;2023-08-07T07:35:26;6.80;;;3.23;;
3369;SDS011;42042;51.948;7.628;2023-08-07T07:37:55;11.77;;;5.23;;
3369;SDS011;42042;51.948;7.628;2023-08-07T07:40:23;8.57;;;3.90;;
3369;SDS011;42042;51.948;7.628;2023-08-07T07:42:51;9.73;;;4.33;;
3369;SDS011;42042;51.948;7.628;2023-08-07T07:45:18;10.27;;;4.53;;
3369;SDS011;42042;51.948;7.628;2023-08-07T07:47:48;9.33;;;3.93;;
3369;SDS011;42042;51.948;7.628;2023-08-07T07:50:15;12.63;;;4.37;;
3369;SDS011;42042;51.948;7.628;2023-08-07T07:52:43;7.40;;;2.70;;
3369;SDS011;42042;51.948;7.628;2023-08-07T07:55:10;7.33;;;3.43;;
3369;SDS011;42042;51.948;7.628;2023-08-07T07:57:38;6.20;;;3.03;;
3369;SDS011;42042;51.948;7.628;2023-08-07T08:00:08;4.57;;;3.10;;
3369;SDS011;42042;51.948;7.628;2023-08-07T08:02:37;4.27;;;2.50;;
3369;SDS011;42042;51.948;7.628;2023-08-07T08:05:06;4.20;;;2.70;;
3369;SDS011;42042;51.948;7.628;2023-08-07T08:07:35;4.87;;;2.57;;
3369;SDS011;42042;51.948;7.628;2023-08-07T08:10:04;3.70;;;3.30;;
3369;SDS011;42042;51.948;7.628;2023-08-07T08:12:31;6.60;;;2.57;;
3369;SDS011;42042;51.948;7.628;2023-08-07T08:14:59;3.97;;;2.70;;
3369;SDS011;42042;51.948;7.628;2023-08-07T08:17:27;5.07;;;3.03;;
3369;SDS011;42042;51.948;7.628;2023-08-07T08:19:54;8.67;;;4.30;;
3369;SDS011;42042;51.948;7.628;2023-08-07T08:22:22;5.03;;;3.33;;
3369;SDS011;42042;51.948;7.628;2023-08-07T08:24:49;13.53;;;4.43;;
3369;SDS011;42042;51.948;7.628;2023-08-07T08:27:16;6.40;;;3.53;;
3369;SDS011;42042;51.948;7.628;2023-08-07T08:29:43;10.87;;;3.50;;
3369;SDS011;42042;51.948;7.628;2023-08-07T08:32:11;7.87;;;3.57;;
3369;SDS011;42042;51.948;7.628;2023-08-07T08:34:40;5.40;;;3.50;;
3369;SDS011;42042;51.948;7.628;2023-08-07T08:37:07;9.40;;;4.20;;
3369;SDS011;42042;51.948;7.628;2023-08-07T08:39:36;6.47;;;3.67;;
3369;SDS011;42042;51.948;7.628;2023-08-07T08:42:03;8.00;;;3.23;;
3369;SDS011;42042;51.948;7.628;2023-08-07T08:44:31;11.17;;;4.10;;
3369;SDS011;42042;51.948;7.628;2023-08-07T08:46:59;13.80;;;4.87;;
3369;SDS011;42042;51.948;7.628;2023-08-07T08:49:28;6.60;;;3.20;;
3369;SDS011;42042;51.948;7.628;2023-08-07T08:51:58;7.53;;;4.13;;
3369;SDS011;42042;51.948;7.628;2023-08-07T08:54:26;8.97;;;4.13;;
3369;SDS011;42042;51.948;7.628;2023-08-07T08:56:53;12.20;;;5.67;;
3369;SDS011;42042;51.948;7.628;2023-08-07T08:59:21;5.27;;;3.33;;
3369;SDS011;42042;51.948;7.628;2023-08-07T09:01:49;10.27;;;6.40;;
3369;SDS011;42042;51.948;7.628;2023-08-07T09:04:17;7.10;;;4.93;;
3369;SDS011;42042;51.948;7.628;2023-08-07T09:06:45;14.43;;;5.00;;
3369;SDS011;42042;51.948;7.628;2023-08-07T09:09:14;8.70;;;4.10;;
3369;SDS011;42042;51.948;7.628;2023-08-07T09:11:42;12.17;;;4.70;;
3369;SDS011;42042;51.948;7.628;2023-08-07T09:14:09;6.93;;;3.47;;
3369;SDS011;42042;51.948;7.628;2023-08-07T09:16:38;13.43;;;5.00;;
3369;SDS011;42042;51.948;7.628;2023-08-07T09:19:05;8.37;;;3.93;;
3369;SDS011;42042;51.948;7.628;2023-08-07T09:21:33;5.40;;;3.90;;
3369;SDS011;42042;51.948;7.628;2023-08-07T09:24:00;12.63;;;4.10;;
3369;SDS011;42042;51.948;7.628;2023-08-07T09:26:29;8.37;;;4.10;;
3369;SDS011;42042;51.948;7.628;2023-08-07T09:28:59;8.17;;;3.90;;
3369;SDS011;42042;51.948;7.628;2023-08-07T09:31:26;13.17;;;3.93;;
3369;SDS011;42042;51.948;7.628;2023-08-07T09:34:00;4.20;;;2.93;;
3369;SDS011;42042;51.948;7.628;2023-08-07T09:36:29;7.23;;;3.90;;
3369;SDS011;42042;51.948;7.628;2023-08-07T09:38:56;4.87;;;3.83;;
3369;SDS011;42042;51.948;7.628;2023-08-07T09:41:27;7.30;;;3.07;;
3369;SDS011;42042;51.948;7.628;2023-08-07T09:43:57;7.40;;;3.20;;
3369;SDS011;42042;51.948;7.628;2023-08-07T09:46:25;13.63;;;3.90;;
3369;SDS011;42042;51.948;7.628;2023-08-07T09:48:52;8.17;;;3.83;;
3369;SDS011;42042;51.948;7.628;2023-08-07T09:51:24;5.70;;;3.03;;
3369;SDS011;42042;51.948;7.628;2023-08-07T09:53:52;2.70;;;2.27;;
3369;SDS011;42042;51.948;7.628;2023-08-07T09:56:19;4.90;;;2.67;;
3369;SDS011;42042;51.948;7.628;2023-08-07T09:58:47;3.00;;;2.10;;
3369;SDS011;42042;51.948;7.628;2023-08-07T10:01:16;5.80;;;3.47;;
3369;SDS011;42042;51.948;7.628;2023-08-07T10:03:44;7.33;;;3.23;;
3369;SDS011;42042;51.948;7.628;2023-08-07T10:06:11;5.43;;;2.20;;
3369;SDS011;42042;51.948;7.628;2023-08-07T10:08:39;4.10;;;3.23;;
3369;SDS011;42042;51.948;7.628;2023-08-07T10:11:08;13.80;;;3.10;;
3369;SDS011;42042;51.948;7.628;2023-08-07T10:13:36;4.87;;;3.13;;
3369;SDS011;42042;51.948;7.628;2023-08-07T10:16:04;7.40;;;3.03;;
3369;SDS011;42042;51.948;7.628;2023-08-07T10:18:32;11.03;;;3.70;;
3369;SDS011;42042;51.948;7.628;2023-08-07T10:21:00;4.70;;;2.77;;
3369;SDS011;42042;51.948;7.628;2023-08-07T10:25:59;6.80;;;3.40;;
3369;SDS011;42042;51.948;7.628;2023-08-07T10:28:28;10.70;;;2.87;;
3369;SDS011;42042;51.948;7.628;2023-08-07T10:30:55;6.07;;;2.63;;
3369;SDS011;42042;51.948;7.628;2023-08-07T10:33:23;4.40;;;2.60;;
3369;SDS011;42042;51.948;7.628;2023-08-07T10:35:52;7.90;;;2.53;;
3369;SDS011;42042;51.948;7.628;2023-08-07T10:38:19;6.97;;;2.77;;
3369;SDS011;42042;51.948;7.628;2023-08-07T10:40:58;10.33;;;3.00;;
3369;SDS011;42042;51.948;7.628;2023-08-07T10:43:25;7.67;;;3.37;;
3369;SDS011;42042;51.948;7.628;2023-08-07T10:45:53;4.53;;;3.13;;
3369;SDS011;42042;51.948;7.628;2023-08-07T10:48:21;4.60;;;3.27;;
3369;SDS011;42042;51.948;7.628;2023-08-07T10:50:49;10.23;;;4.17;;
3369;SDS011;42042;51.948;7.628;2023-08-07T10:53:28;7.00;;;3.20;;
3369;SDS011;42042;51.948;7.628;2023-08-07T10:55:55;14.70;;;3.30;;
3369;SDS011;42042;51.948;7.628;2023-08-07T10:58:24;5.30;;;3.40;;
3369;SDS011;42042;51.948;7.628;2023-08-07T11:00:52;5.63;;;4.00;;
3369;SDS011;42042;51.948;7.628;2023-08-07T11:03:20;9.00;;;2.97;;
3369;SDS011;42042;51.948;7.628;2023-08-07T11:05:47;3.90;;;3.23;;
3369;SDS011;42042;51.948;7.628;2023-08-07T11:08:14;4.90;;;3.30;;
3369;SDS011;42042;51.948;7.628;2023-08-07T11:10:43;5.07;;;2.60;;
3369;SDS011;42042;51.948;7.628;2023-08-07T11:13:10;4.13;;;2.57;;
3369;SDS011;42042;51.948;7.628;2023-08-07T11:15:37;6.40;;;2.70;;
3369;SDS011;42042;51.948;7.628;2023-08-07T11:18:04;3.30;;;2.87;;
3369;SDS011;42042;51.948;7.628;2023-08-07T11:20:32;5.30;;;3.17;;
3369;SDS011;42042;51.948;7.628;2023-08-07T11:23:03;5.47;;;3.07;;
3369;SDS011;42042;51.948;7.628;2023-08-07T11:25:31;4.03;;;3.30;;
3369;SDS011;42042;51.948;7.628;2023-08-07T11:27:59;7.23;;;2.57;;
3369;SDS011;42042;51.948;7.628;2023-08-07T11:30:27;8.60;;;3.73;;
3369;SDS011;42042;51.948;7.628;2023-08-07T11:32:54;6.80;;;2.97;;
3369;SDS011;42042;51.948;7.628;2023-08-07T11:35:22;5.63;;;2.37;;
3369;SDS011;42042;51.948;7.628;2023-08-07T11:37:49;10.73;;;2.83;;
3369;SDS011;42042;51.948;7.628;2023-08-07T11:40:19;6.90;;;3.10;;
3369;SDS011;42042;51.948;7.628;2023-08-07T11:42:46;10.60;;;2.90;;
3369;SDS011;42042;51.948;7.628;2023-08-07T11:45:15;7.40;;;2.80;;
3369;SDS011;42042;51.948;7.628;2023-08-07T11:47:42;5.30;;;2.30;;
3369;SDS011;42042;51.948;7.628;2023-08-07T11:50:09;3.07;;;1.63;;
3369;SDS011;42042;51.948;7.628;2023-08-07T11:52:37;4.80;;;2.80;;
3369;SDS011;42042;51.948;7.628;2023-08-07T11:55:05;4.33;;;2.50;;
3369;SDS011;42042;51.948;7.628;2023-08-07T11:57:34;2.27;;;1.90;;
3369;SDS011;42042;51.948;7.628;2023-08-07T12:00:01;4.03;;;2.70;;
3369;SDS011;42042;51.948;7.628;2023-08-07T12:02:34;4.00;;;2.23;;
3369;SDS011;42042;51.948;7.628;2023-08-07T12:05:02;3.30;;;2.07;;
3369;SDS011;42042;51.948;7.628;2023-08-07T12:07:29;3.03;;;2.23;;
3369;SDS011;42042;51.948;7.628;2023-08-07T12:09:57;4.07;;;1.90;;
3369;SDS011;42042;51.948;7.628;2023-08-07T12:12:24;4.50;;;2.37;;
3369;SDS011;42042;51.948;7.628;2023-08-07T12:14:52;5.83;;;2.50;;
3369;SDS011;42042;51.948;7.628;2023-08-07T12:17:21;5.77;;;2.50;;
3369;SDS011;42042;51.948;7.628;2023-08-07T12:22:22;3.43;;;2.23;;
3369;SDS011;42042;51.948;7.628;2023-08-07T12:24:49;7.07;;;2.97;;
3369;SDS011;42042;51.948;7.628;2023-08-07T12:27:16;7.10;;;2.90;;
3369;SDS011;42042;51.948;7.628;2023-08-07T12:29:44;7.70;;;2.60;;
3369;SDS011;42042;51.948;7.628;2023-08-07T12:32:11;11.30;;;3.47;;
3369;SDS011;42042;51.948;7.628;2023-08-07T12:34:38;4.40;;;2.10;;
3369;SDS011;42042;51.948;7.628;2023-08-07T12:37:06;9.73;;;3.07;;
3369;SDS011;42042;51.948;7.628;2023-08-07T12:39:35;2.23;;;2.03;;
3369;SDS011;42042;51.948;7.628;2023-08-07T12:42:02;3.23;;;2.67;;
3369;SDS011;42042;51.948;7.628;2023-08-07T12:44:31;5.00;;;2.27;;
3369;SDS011;42042;51.948;7.628;2023-08-07T12:46:58;3.27;;;2.23;;
3369;SDS011;42042;51.948;7.628;2023-08-07T12:49:25;5.20;;;2.77;;
3369;SDS011;42042;51.948;7.628;2023-08-07T12:51:52;6.23;;;2.97;;
3369;SDS011;42042;51.948;7.628;2023-08-07T12:54:21;4.43;;;2.43;;
3369;SDS011;42042;51.948;7.628;2023-08-07T12:56:50;3.53;;;2.43;;
3369;SDS011;42042;51.948;7.628;2023-08-07T12:59:19;3.13;;;2.47;;
3369;SDS011;42042;51.948;7.628;2023-08-07T13:01:47;9.00;;;2.70;;
3369;SDS011;42042;51.948;7.628;2023-08-07T13:04:14;2.80;;;1.97;;
3369;SDS011;42042;51.948;7.628;2023-08-07T13:06:42;5.63;;;3.13;;
3369;SDS011;42042;51.948;7.628;2023-08-07T13:09:09;4.03;;;2.03;;
3369;SDS011;42042;51.948;7.628;2023-08-07T13:11:36;4.27;;;2.57;;
3369;SDS011;42042;51.948;7.628;2023-08-07T13:14:05;2.87;;;2.10;;
3369;SDS011;42042;51.948;7.628;2023-08-07T13:16:32;6.53;;;2.10;;
3369;SDS011;42042;51.948;7.628;2023-08-07T13:18:59;6.33;;;2.77;;
3369;SDS011;42042;51.948;7.628;2023-08-07T13:21:27;3.10;;;2.33;;
3369;SDS011;42042;51.948;7.628;2023-08-07T13:23:54;5.93;;;2.27;;
3369;SDS011;42042;51.948;7.628;2023-08-07T13:26:21;8.43;;;3.37;;
3369;SDS011;42042;51.948;7.628;2023-08-07T13:28:48;4.33;;;3.07;;
3369;SDS011;42042;51.948;7.628;2023-08-07T13:31:17;6.17;;;2.53;;
3369;SDS011;42042;51.948;7.628;2023-08-07T13:33:44;2.17;;;1.97;;
3369;SDS011;42042;51.948;7.628;2023-08-07T13:36:11;7.03;;;2.60;;
3369;SDS011;42042;51.948;7.628;2023-08-07T13:38:38;5.60;;;2.67;;
3369;SDS011;42042;51.948;7.628;2023-08-07T13:41:06;2.20;;;2.00;;
3369;SDS011;42042;51.948;7.628;2023-08-07T13:43:33;3.53;;;1.90;;
3369;SDS011;42042;51.948;7.628;2023-08-07T13:46:00;7.67;;;2.70;;
3369;SDS011;42042;51.948;7.628;2023-08-07T13:48:29;3.90;;;2.47;;
3369;SDS011;42042;51.948;7.628;2023-08-07T13:50:58;4.73;;;2.47;;
3369;SDS011;42042;51.948;7.628;2023-08-07T13:53:29;4.20;;;2.40;;
3369;SDS011;42042;51.948;7.628;2023-08-07T13:55:56;5.33;;;2.40;;
3369;SDS011;42042;51.948;7.628;2023-08-07T13:58:23;6.80;;;3.03;;
3369;SDS011;42042;51.948;7.628;2023-08-07T14:00:51;7.10;;;3.27;;
3369;SDS011;42042;51.948;7.628;2023-08-07T14:03:18;5.13;;;2.53;;
3369;SDS011;42042;51.948;7.628;2023-08-07T14:05:47;8.27;;;2.40;;
3369;SDS011;42042;51.948;7.628;2023-08-07T14:08:15;4.47;;;2.67;;
3369;SDS011;42042;51.948;7.628;2023-08-07T14:10:42;4.13;;;3.20;;
3369;SDS011;42042;51.948;7.628;2023-08-07T14:13:09;6.60;;;2.70;;
3369;SDS011;42042;51.948;7.628;2023-08-07T14:15:37;3.97;;;2.30;;
3369;SDS011;42042;51.948;7.628;2023-08-07T14:18:04;3.90;;;2.80;;
3369;SDS011;42042;51.948;7.628;2023-08-07T14:20:31;9.53;;;2.50;;
3369;SDS011;42042;51.948;7.628;2023-08-07T14:23:00;5.10;;;2.53;;
3369;SDS011;42042;51.948;7.628;2023-08-07T14:25:27;4.23;;;2.40;;
3369;SDS011;42042;51.948;7.628;2023-08-07T14:27:54;4.07;;;2.03;;
3369;SDS011;42042;51.948;7.628;2023-08-07T14:30:21;2.90;;;2.10;;
3369;SDS011;42042;51.948;7.628;2023-08-07T14:32:48;5.50;;;2.90;;
3369;SDS011;42042;51.948;7.628;2023-08-07T14:35:16;7.80;;;2.20;;
3369;SDS011;42042;51.948;7.628;2023-08-07T14:37:43;7.10;;;2.80;;
3369;SDS011;42042;51.948;7.628;2023-08-07T14:40:14;3.93;;;2.03;;
3369;SDS011;42042;51.948;7.628;2023-08-07T14:42:41;4.00;;;1.60;;
3369;SDS011;42042;51.948;7.628;2023-08-07T14:45:08;2.63;;;2.07;;
3369;SDS011;42042;51.948;7.628;2023-08-07T14:47:36;3.20;;;1.80;;
3369;SDS011;42042;51.948;7.628;2023-08-07T14:50:03;4.30;;;2.47;;
3369;SDS011;42042;51.948;7.628;2023-08-07T14:52:31;10.00;;;2.20;;
3369;SDS011;42042;51.948;7.628;2023-08-07T14:54:58;5.60;;;2.07;;
3369;SDS011;42042;51.948;7.628;2023-08-07T14:57:27;3.30;;;2.13;;
3369;SDS011;42042;51.948;7.628;2023-08-07T14:59:55;3.17;;;1.93;;
3369;SDS011;42042;51.948;7.628;2023-08-07T15:02:22;5.53;;;2.87;;
3369;SDS011;42042;51.948;7.628;2023-08-07T15:04:49;4.67;;;2.10;;
3369;SDS011;42042;51.948;7.628;2023-08-07T15:07:16;2.67;;;2.33;;
3369;SDS011;42042;51.948;7.628;2023-08-07T15:09:43;2.50;;;1.60;;